createdAt,value
2022-11-12T00:00:06.585Z,0.90
2022-11-12T00:01:28.913Z,0.88
2022-11-12T00:02:50.550Z,0.86
2022-11-12T00:04:13.061Z,0.86
2022-11-12T00:05:34.319Z,0.88
2022-11-12T00:06:57.976Z,0.86
2022-11-12T00:08:19.121Z,0.85
2022-11-12T00:09:41.432Z,0.86
2022-11-12T00:11:05.127Z,0.88
2022-11-12T00:12:26.162Z,0.89
2022-11-12T00:13:48.740Z,0.90
2022-11-12T00:15:11.090Z,0.91
2022-11-12T00:16:33.622Z,0.92
2022-11-12T00:17:54.940Z,0.93
2022-11-12T00:19:17.091Z,0.94
2022-11-12T00:20:38.310Z,0.95
2022-11-12T00:22:01.884Z,0.95
2022-11-12T00:23:23.283Z,0.95
2022-11-12T00:24:45.679Z,0.95
2022-11-12T00:26:08.079Z,0.96
2022-11-12T00:27:30.183Z,0.92
2022-11-12T00:28:52.252Z,0.91
2022-11-12T00:30:13.783Z,0.91
2022-11-12T00:31:37.381Z,0.89
2022-11-12T00:32:58.962Z,0.88
2022-11-12T00:34:21.414Z,0.87
2022-11-12T00:35:42.822Z,0.85
2022-11-12T00:37:06.495Z,0.84
2022-11-12T00:38:31.710Z,0.82
2022-11-12T00:39:52.961Z,0.79
2022-11-12T00:41:15.048Z,0.77
2022-11-12T00:42:36.550Z,0.76
2022-11-12T00:43:59.043Z,0.73
2022-11-12T00:45:21.906Z,0.69
2022-11-12T00:46:43.276Z,0.66
2022-11-12T00:48:05.720Z,0.65
2022-11-12T00:49:28.102Z,0.62
2022-11-12T00:50:49.654Z,0.60
2022-11-12T00:52:13.186Z,0.58
2022-11-12T00:53:35.412Z,0.54
2022-11-12T00:54:56.566Z,0.51
2022-11-12T00:56:19.110Z,0.51
2022-11-12T00:57:41.210Z,0.48
2022-11-12T00:59:02.543Z,0.47
2022-11-12T01:00:24.942Z,0.44
2022-11-12T01:01:46.522Z,0.42
2022-11-12T01:03:08.733Z,0.38
2022-11-12T01:04:29.994Z,0.36
2022-11-12T01:05:52.432Z,0.35
2022-11-12T01:07:16.195Z,0.34
2022-11-12T01:08:38.814Z,0.34
2022-11-12T01:09:59.943Z,0.33
2022-11-12T01:11:24.201Z,0.32
2022-11-12T01:12:45.552Z,0.30
2022-11-12T01:14:09.452Z,0.29
2022-11-12T01:15:30.783Z,0.25
2022-11-12T01:16:53.214Z,0.23
2022-11-12T01:18:14.572Z,0.21
2022-11-12T01:19:37.030Z,0.22
2022-11-12T01:21:01.975Z,0.22
2022-11-12T01:22:25.864Z,0.18
2022-11-12T01:23:47.029Z,0.13
2022-11-12T01:25:09.913Z,0.12
2022-11-12T01:26:31.374Z,0.10
2022-11-12T01:27:53.822Z,0.08
2022-11-12T01:29:15.152Z,0.08
2022-11-12T01:30:37.428Z,0.09
2022-11-12T01:31:59.615Z,0.06
2022-11-12T01:33:20.572Z,0.04
2022-11-12T01:34:42.799Z,0.02
2022-11-12T01:36:04.033Z,-0.02
2022-11-12T01:37:27.601Z,-0.05
2022-11-12T01:38:49.744Z,-0.07
2022-11-12T01:40:12.795Z,-0.09
2022-11-12T01:41:36.902Z,-0.12
2022-11-12T01:42:59.331Z,-0.11
2022-11-12T01:44:22.802Z,-0.11
2022-11-12T01:45:47.972Z,-0.10
2022-11-12T01:47:13.510Z,-0.11
2022-11-12T01:48:38.662Z,-0.12
2022-11-12T01:50:02.587Z,-0.13
2022-11-12T01:51:25.742Z,-0.15
2022-11-12T01:52:52.160Z,-0.16
2022-11-12T01:54:16.150Z,-0.18
2022-11-12T01:55:39.243Z,-0.18
2022-11-12T01:57:00.744Z,-0.18
2022-11-12T01:58:25.369Z,-0.18
2022-11-12T01:59:48.439Z,-0.18
2022-11-12T02:01:10.702Z,-0.18
2022-11-12T02:02:31.932Z,-0.20
2022-11-12T02:03:54.116Z,-0.19
2022-11-12T02:05:15.805Z,-0.19
2022-11-12T02:06:38.473Z,-0.23
2022-11-12T02:08:01.550Z,-0.25
2022-11-12T02:09:24.091Z,-0.30
2022-11-12T02:10:46.678Z,-0.32
2022-11-12T02:12:08.060Z,-0.31
2022-11-12T02:13:47.483Z,-0.31
2022-11-12T02:15:10.559Z,-0.34
2022-11-12T02:16:34.312Z,-0.33
2022-11-12T02:17:56.379Z,-0.32
2022-11-12T02:19:19.232Z,-0.32
2022-11-12T02:20:40.829Z,-0.31
2022-11-12T02:22:04.373Z,-0.30
2022-11-12T02:23:25.714Z,-0.29
2022-11-12T02:24:48.195Z,-0.30
2022-11-12T02:26:09.652Z,-0.32
2022-11-12T02:27:31.730Z,-0.33
2022-11-12T02:28:52.810Z,-0.34
2022-11-12T02:30:15.071Z,-0.34
2022-11-12T02:31:37.277Z,-0.33
2022-11-12T02:32:59.012Z,-0.34
2022-11-12T02:34:21.161Z,-0.34
2022-11-12T02:35:42.660Z,-0.34
2022-11-12T02:37:06.323Z,-0.34
2022-11-12T02:38:27.760Z,-0.33
2022-11-12T02:39:50.462Z,-0.31
2022-11-12T02:41:11.539Z,-0.30
2022-11-12T02:42:33.990Z,-0.30
2022-11-12T02:43:56.000Z,-0.30
2022-11-12T02:45:18.235Z,-0.30
2022-11-12T02:46:40.712Z,-0.29
2022-11-12T02:48:01.979Z,-0.29
2022-11-12T02:49:24.458Z,-0.29
2022-11-12T02:50:47.913Z,-0.29
2022-11-12T02:52:10.471Z,-0.29
2022-11-12T02:53:33.341Z,-0.31
2022-11-12T02:54:54.361Z,-0.33
2022-11-12T02:56:16.670Z,-0.34
2022-11-12T02:57:39.980Z,-0.35
2022-11-12T02:59:01.688Z,-0.37
2022-11-12T03:00:24.370Z,-0.38
2022-11-12T03:01:46.890Z,-0.39
2022-11-12T03:03:08.163Z,-0.41
2022-11-12T03:04:30.690Z,-0.42
2022-11-12T03:06:00.810Z,-0.45
2022-11-12T03:07:24.508Z,-0.49
2022-11-12T03:08:47.036Z,-0.51
2022-11-12T03:10:10.193Z,-0.51
2022-11-12T03:11:32.670Z,-0.51
2022-11-12T03:12:53.852Z,-0.51
2022-11-12T03:14:16.196Z,-0.54
2022-11-12T03:15:38.283Z,-0.52
2022-11-12T03:16:59.379Z,-0.52
2022-11-12T03:18:21.533Z,-0.53
2022-11-12T03:19:43.036Z,-0.56
2022-11-12T03:21:06.008Z,-0.57
2022-11-12T03:22:28.694Z,-0.55
2022-11-12T03:23:51.218Z,-0.57
2022-11-12T03:25:12.651Z,-0.59
2022-11-12T03:26:36.077Z,-0.59
2022-11-12T03:27:58.600Z,-0.59
2022-11-12T03:29:21.131Z,-0.58
2022-11-12T03:30:43.450Z,-0.55
2022-11-12T03:32:06.290Z,-0.55
2022-11-12T03:33:27.670Z,-0.55
2022-11-12T03:34:55.142Z,-0.55
2022-11-12T03:36:18.038Z,-0.59
2022-11-12T03:37:40.923Z,-0.60
2022-11-12T03:39:03.404Z,-0.61
2022-11-12T03:40:26.288Z,-0.62
2022-11-12T03:41:47.516Z,-0.64
2022-11-12T03:43:10.611Z,-0.64
2022-11-12T03:44:32.917Z,-0.65
2022-11-12T03:45:55.304Z,-0.64
2022-11-12T03:47:16.764Z,-0.62
2022-11-12T03:48:38.869Z,-0.60
2022-11-12T03:49:59.900Z,-0.59
2022-11-12T03:51:22.919Z,-0.60
2022-11-12T03:52:46.916Z,-0.60
2022-11-12T03:54:09.571Z,-0.62
2022-11-12T03:55:31.291Z,-0.62
2022-11-12T03:56:53.539Z,-0.61
2022-11-12T03:58:16.197Z,-0.61
2022-11-12T03:59:37.852Z,-0.60
2022-11-12T04:01:00.169Z,-0.60
2022-11-12T04:02:21.503Z,-0.59
2022-11-12T04:03:43.840Z,-0.58
2022-11-12T04:05:25.009Z,-0.58
2022-11-12T04:07:04.824Z,-0.60
2022-11-12T04:08:36.565Z,-0.61
2022-11-12T04:09:58.672Z,-0.64
2022-11-12T04:11:21.335Z,-0.65
2022-11-12T04:13:00.773Z,-0.65
2022-11-12T04:14:23.163Z,-0.65
2022-11-12T04:15:44.422Z,-0.64
2022-11-12T04:17:23.571Z,-0.63
2022-11-12T04:19:04.831Z,-0.61
2022-11-12T04:20:44.533Z,-0.61
2022-11-12T04:22:09.101Z,-0.61
2022-11-12T04:23:31.740Z,-0.60
2022-11-12T04:25:11.290Z,-0.59
2022-11-12T04:26:33.803Z,-0.57
2022-11-12T04:27:54.972Z,-0.57
2022-11-12T04:29:37.563Z,-0.55
2022-11-12T04:30:59.844Z,-0.51
2022-11-12T04:32:21.277Z,-0.45
2022-11-12T04:33:44.133Z,-0.41
2022-11-12T04:35:07.435Z,-0.38
2022-11-12T04:36:28.322Z,-0.34
2022-11-12T04:37:50.762Z,-0.34
2022-11-12T04:39:13.420Z,-0.33
2022-11-12T04:40:52.810Z,-0.34
2022-11-12T04:42:32.750Z,-0.34
2022-11-12T04:44:12.233Z,-0.34
2022-11-12T04:45:42.437Z,-0.36
2022-11-12T04:47:03.452Z,-0.35
2022-11-12T04:48:26.831Z,-0.35
2022-11-12T04:49:48.019Z,-0.38
2022-11-12T04:51:31.751Z,-0.39
2022-11-12T04:52:53.123Z,-0.45
2022-11-12T04:54:16.917Z,-0.48
2022-11-12T04:55:39.006Z,-0.50
2022-11-12T04:57:00.043Z,-0.51
2022-11-12T04:58:22.830Z,-0.53
2022-11-12T04:59:44.235Z,-0.53
2022-11-12T05:01:06.440Z,-0.51
2022-11-12T05:02:28.729Z,-0.49
2022-11-12T05:03:50.091Z,-0.54
2022-11-12T05:05:12.389Z,-0.56
2022-11-12T05:06:51.570Z,-0.57
2022-11-12T05:08:13.771Z,-0.57
2022-11-12T05:09:36.802Z,-0.58
2022-11-12T05:10:58.990Z,-0.59
2022-11-12T05:12:20.081Z,-0.60
2022-11-12T05:13:42.164Z,-0.60
2022-11-12T05:15:05.140Z,-0.63
2022-11-12T05:16:26.603Z,-0.64
2022-11-12T05:17:49.295Z,-0.66
2022-11-12T05:19:10.371Z,-0.69
2022-11-12T05:20:32.714Z,-0.68
2022-11-12T05:22:06.502Z,-0.69
2022-11-12T05:23:28.610Z,-0.69
2022-11-12T05:24:52.320Z,-0.68
2022-11-12T05:26:13.393Z,-0.68
2022-11-12T05:27:36.251Z,-0.71
2022-11-12T05:28:57.722Z,-0.71
2022-11-12T05:30:20.261Z,-0.70
2022-11-12T05:31:41.272Z,-0.69
2022-11-12T05:33:03.934Z,-0.66
2022-11-12T05:34:26.221Z,-0.67
2022-11-12T05:35:47.669Z,-0.70
2022-11-12T05:37:10.518Z,-0.70
2022-11-12T05:38:31.836Z,-0.71
2022-11-12T05:39:55.431Z,-0.70
2022-11-12T05:41:20.120Z,-0.70
2022-11-12T05:42:42.880Z,-0.69
2022-11-12T05:44:04.421Z,-0.67
2022-11-12T05:45:26.901Z,-0.64
2022-11-12T05:46:50.481Z,-0.61
2022-11-12T05:48:12.491Z,-0.60
2022-11-12T05:49:34.633Z,-0.58
2022-11-12T05:51:12.405Z,-0.57
2022-11-12T05:52:35.453Z,-0.57
2022-11-12T05:53:57.110Z,-0.57
2022-11-12T05:55:20.932Z,-0.57
2022-11-12T05:56:43.188Z,-0.56
2022-11-12T05:58:06.125Z,-0.56
2022-11-12T05:59:28.000Z,-0.56
2022-11-12T06:00:49.322Z,-0.55
2022-11-12T06:02:11.521Z,-0.54
2022-11-12T06:03:32.830Z,-0.52
2022-11-12T06:04:54.901Z,-0.50
2022-11-12T06:06:16.395Z,-0.48
2022-11-12T06:07:38.921Z,-0.47
2022-11-12T06:09:01.286Z,-0.45
2022-11-12T06:10:24.831Z,-0.44
2022-11-12T06:11:47.229Z,-0.44
2022-11-12T06:13:08.539Z,-0.43
2022-11-12T06:14:30.912Z,-0.45
2022-11-12T06:15:52.088Z,-0.42
2022-11-12T06:17:14.107Z,-0.39
2022-11-12T06:18:35.521Z,-0.37
2022-11-12T06:19:58.071Z,-0.36
2022-11-12T06:21:23.162Z,-0.35
2022-11-12T06:22:45.596Z,-0.31
2022-11-12T06:24:08.389Z,-0.29
2022-11-12T06:25:31.020Z,-0.25
2022-11-12T06:26:53.051Z,-0.22
2022-11-12T06:28:14.270Z,-0.18
2022-11-12T06:29:36.560Z,-0.13
2022-11-12T06:30:59.083Z,-0.08
2022-11-12T06:32:20.310Z,-0.03
2022-11-12T06:33:43.271Z,0.03
2022-11-12T06:35:05.096Z,0.07
2022-11-12T06:36:27.212Z,0.08
2022-11-12T06:37:48.899Z,0.12
2022-11-12T06:39:12.449Z,0.16
2022-11-12T06:40:35.259Z,0.20
2022-11-12T06:41:57.511Z,0.27
2022-11-12T06:43:18.662Z,0.33
2022-11-12T06:44:41.121Z,0.41
2022-11-12T06:46:02.982Z,0.49
2022-11-12T06:47:25.357Z,0.56
2022-11-12T06:48:47.836Z,0.62
2022-11-12T06:50:09.692Z,0.67
2022-11-12T06:51:31.800Z,0.73
2022-11-12T06:52:58.859Z,0.79
2022-11-12T06:54:21.069Z,0.85
2022-11-12T06:55:44.509Z,0.91
2022-11-12T06:57:06.821Z,0.99
2022-11-12T06:58:28.384Z,1.08
2022-11-12T06:59:51.163Z,1.18
2022-11-12T07:01:15.102Z,1.26
2022-11-12T07:02:37.658Z,1.36
2022-11-12T07:03:59.809Z,1.43
2022-11-12T07:05:20.972Z,1.50
2022-11-12T07:06:43.383Z,1.57
2022-11-12T07:08:06.044Z,1.64
2022-11-12T07:09:28.259Z,1.68
2022-11-12T07:10:52.131Z,1.74
2022-11-12T07:12:14.650Z,1.80
2022-11-12T07:13:40.625Z,1.87
2022-11-12T07:15:01.827Z,1.91
2022-11-12T07:16:24.416Z,1.98
2022-11-12T07:17:47.235Z,2.04
2022-11-12T07:19:09.669Z,2.12
2022-11-12T07:20:31.012Z,2.17
2022-11-12T07:21:53.578Z,2.21
2022-11-12T07:23:15.716Z,2.28
2022-11-12T07:24:38.342Z,2.36
2022-11-12T07:26:03.921Z,2.44
2022-11-12T07:27:25.410Z,2.53
2022-11-12T07:28:48.042Z,2.59
2022-11-12T07:30:11.189Z,2.68
2022-11-12T07:31:32.374Z,2.77
2022-11-12T07:32:55.192Z,2.85
2022-11-12T07:34:20.551Z,2.94
2022-11-12T07:35:43.759Z,3.04
2022-11-12T07:37:06.186Z,3.16
2022-11-12T07:38:29.444Z,3.25
2022-11-12T07:39:52.101Z,3.34
2022-11-12T07:41:19.209Z,3.44
2022-11-12T07:42:41.804Z,3.52
2022-11-12T07:44:05.691Z,3.59
2022-11-12T07:45:28.663Z,3.66
2022-11-12T07:46:51.070Z,3.72
2022-11-12T07:48:13.651Z,3.79
2022-11-12T07:49:36.902Z,3.82
2022-11-12T07:51:03.141Z,3.86
2022-11-12T07:52:25.538Z,3.89
2022-11-12T07:53:48.942Z,3.95
2022-11-12T07:55:11.256Z,4.00
2022-11-12T07:56:35.241Z,4.05
2022-11-12T07:58:00.587Z,4.12
2022-11-12T07:59:22.942Z,4.18
2022-11-12T08:00:45.275Z,4.23
2022-11-12T08:02:09.972Z,4.27
2022-11-12T08:03:32.539Z,4.32
2022-11-12T08:04:54.711Z,4.37
2022-11-12T08:06:17.159Z,4.42
2022-11-12T08:07:39.649Z,4.48
2022-11-12T08:09:02.922Z,4.52
2022-11-12T08:10:25.181Z,4.56
2022-11-12T08:11:49.382Z,4.61
2022-11-12T08:13:12.153Z,4.67
2022-11-12T08:14:34.741Z,4.73
2022-11-12T08:15:58.750Z,4.80
2022-11-12T08:17:21.333Z,4.87
2022-11-12T08:18:43.912Z,4.93
2022-11-12T08:20:07.238Z,5.01
2022-11-12T08:21:29.920Z,5.08
2022-11-12T08:22:52.421Z,5.15
2022-11-12T08:24:14.754Z,5.23
2022-11-12T08:25:38.166Z,5.33
2022-11-12T08:27:01.990Z,5.40
2022-11-12T08:28:23.589Z,5.48
2022-11-12T08:29:47.258Z,5.54
2022-11-12T08:31:10.692Z,5.60
2022-11-12T08:32:33.412Z,5.64
2022-11-12T08:33:55.851Z,5.69
2022-11-12T08:35:18.383Z,5.74
2022-11-12T08:36:41.472Z,5.79
2022-11-12T08:38:05.583Z,5.84
2022-11-12T08:39:28.284Z,5.88
2022-11-12T08:40:50.470Z,5.93
2022-11-12T08:42:14.402Z,5.97
2022-11-12T08:43:37.218Z,6.04
2022-11-12T08:44:59.652Z,6.09
2022-11-12T08:46:21.882Z,6.13
2022-11-12T08:47:44.662Z,6.20
2022-11-12T08:49:07.023Z,6.26
2022-11-12T08:50:29.051Z,6.34
2022-11-12T08:51:52.029Z,6.44
2022-11-12T08:53:14.962Z,6.55
2022-11-12T08:54:37.221Z,6.66
2022-11-12T08:55:59.611Z,6.81
2022-11-12T08:57:23.501Z,6.94
2022-11-12T08:58:46.080Z,7.11
2022-11-12T09:00:09.397Z,7.24
2022-11-12T09:01:32.158Z,7.39
2022-11-12T09:02:54.498Z,7.52
2022-11-12T09:04:17.020Z,7.64
2022-11-12T09:05:39.420Z,7.74
2022-11-12T09:07:02.656Z,7.82
2022-11-12T09:08:26.746Z,7.90
2022-11-12T09:09:49.364Z,7.95
2022-11-12T09:11:12.069Z,8.02
2022-11-12T09:12:36.053Z,8.07
2022-11-12T09:13:58.631Z,8.15
2022-11-12T09:15:37.926Z,8.23
2022-11-12T09:17:00.811Z,8.33
2022-11-12T09:18:22.210Z,8.40
2022-11-12T09:19:44.471Z,8.48
2022-11-12T09:21:08.671Z,8.57
2022-11-12T09:22:32.433Z,8.67
2022-11-12T09:23:55.801Z,8.75
2022-11-12T09:25:17.517Z,8.83
2022-11-12T09:26:40.000Z,8.91
2022-11-12T09:28:09.810Z,8.99
2022-11-12T09:29:32.400Z,9.06
2022-11-12T09:30:55.908Z,9.12
2022-11-12T09:32:18.069Z,9.16
2022-11-12T09:33:40.649Z,9.19
2022-11-12T09:35:03.281Z,9.22
2022-11-12T09:36:25.810Z,9.24
2022-11-12T09:37:47.351Z,9.27
2022-11-12T09:39:09.650Z,9.27
2022-11-12T09:40:42.961Z,9.33
2022-11-12T09:42:08.822Z,9.38
2022-11-12T09:43:34.230Z,9.44
2022-11-12T09:44:59.201Z,9.50
2022-11-12T09:46:35.479Z,9.59
2022-11-12T09:48:00.652Z,9.70
2022-11-12T09:49:26.082Z,9.79
2022-11-12T09:50:55.930Z,9.89
2022-11-12T09:52:20.954Z,10.00
2022-11-12T09:53:48.943Z,10.11
2022-11-12T09:55:16.622Z,10.23
2022-11-12T09:56:39.147Z,10.33
2022-11-12T09:58:01.827Z,10.42
2022-11-12T09:59:28.808Z,10.50
2022-11-12T10:00:56.420Z,10.61
2022-11-12T10:02:28.629Z,10.72
2022-11-12T10:03:55.529Z,10.83
2022-11-12T10:05:29.824Z,10.92
2022-11-12T10:07:00.435Z,10.97
2022-11-12T10:08:33.195Z,10.99
2022-11-12T10:10:03.387Z,10.98
2022-11-12T10:12:14.572Z,11.00
2022-11-12T10:13:47.881Z,11.01
2022-11-12T10:16:03.704Z,11.04
2022-11-12T10:17:33.650Z,11.04
2022-11-12T10:19:18.110Z,11.04
2022-11-12T10:20:47.851Z,11.05
2022-11-12T10:22:25.073Z,11.08
2022-11-12T10:23:48.783Z,11.12
2022-11-12T10:25:16.041Z,11.16
2022-11-12T10:26:39.025Z,11.19
2022-11-12T10:28:03.690Z,11.27
2022-11-12T10:29:31.522Z,11.31
2022-11-12T10:30:58.112Z,11.39
2022-11-12T10:32:20.519Z,11.42
2022-11-12T10:33:43.121Z,11.45
2022-11-12T10:35:06.247Z,11.49
2022-11-12T10:36:33.673Z,11.56
2022-11-12T10:37:58.411Z,11.61
2022-11-12T10:39:37.353Z,11.69
2022-11-12T10:40:59.512Z,11.75
2022-11-12T10:42:22.835Z,11.82
2022-11-12T10:43:54.950Z,11.88
2022-11-12T10:45:21.911Z,11.95
2022-11-12T10:46:45.590Z,12.02
2022-11-12T10:48:26.961Z,12.10
2022-11-12T10:50:03.801Z,12.16
2022-11-12T10:51:28.744Z,12.21
2022-11-12T10:52:59.880Z,12.29
2022-11-12T10:54:30.203Z,12.32
2022-11-12T10:55:59.711Z,12.35
2022-11-12T10:57:23.039Z,12.36
2022-11-12T10:58:45.356Z,12.39
2022-11-12T11:00:09.400Z,12.46
2022-11-12T11:01:35.887Z,12.49
2022-11-12T11:03:00.822Z,12.52
2022-11-12T11:04:31.579Z,12.53
2022-11-12T11:05:57.301Z,12.56
2022-11-12T11:07:23.215Z,12.54
2022-11-12T11:08:47.236Z,12.59
2022-11-12T11:10:24.823Z,12.61
2022-11-12T11:11:50.902Z,12.67
2022-11-12T11:13:23.770Z,12.75
2022-11-12T11:14:45.880Z,12.82
2022-11-12T11:16:10.212Z,12.87
2022-11-12T11:17:32.690Z,12.92
2022-11-12T11:19:00.047Z,12.94
2022-11-12T11:20:24.551Z,12.97
2022-11-12T11:22:22.631Z,13.01
2022-11-12T11:23:49.920Z,13.03
2022-11-12T11:25:22.081Z,13.06
2022-11-12T11:26:54.380Z,13.08
2022-11-12T11:28:21.167Z,13.11
2022-11-12T11:30:03.594Z,13.15
2022-11-12T11:31:35.701Z,13.23
2022-11-12T11:33:24.975Z,13.27
2022-11-12T11:34:58.454Z,13.31
2022-11-12T11:36:25.730Z,13.31
2022-11-12T11:37:58.643Z,13.33
2022-11-12T11:39:28.473Z,13.38
2022-11-12T11:40:58.343Z,13.43
2022-11-12T11:42:40.410Z,13.53
2022-11-12T11:44:13.804Z,13.66
2022-11-12T11:45:50.516Z,13.81
2022-11-12T11:47:23.232Z,13.99
2022-11-12T11:48:54.930Z,14.15
2022-11-12T11:50:24.055Z,14.28
2022-11-12T11:51:52.299Z,14.36
2022-11-12T11:53:23.238Z,14.46
2022-11-12T11:54:57.382Z,14.55
2022-11-12T11:56:23.801Z,14.63
2022-11-12T11:57:54.621Z,14.71
2022-11-12T11:59:24.929Z,14.81
2022-11-12T12:00:49.845Z,14.89
2022-11-12T12:02:28.287Z,14.96
2022-11-12T12:04:03.184Z,14.97
2022-11-12T12:05:37.809Z,14.99
2022-11-12T12:07:09.722Z,14.94
2022-11-12T12:08:41.357Z,14.83
2022-11-12T12:10:09.637Z,14.73
2022-11-12T12:11:36.163Z,14.65
2022-11-12T12:13:01.461Z,14.56
2022-11-12T12:14:33.350Z,14.52
2022-11-12T12:16:16.317Z,14.46
2022-11-12T12:17:49.104Z,14.42
2022-11-12T12:19:22.501Z,14.40
2022-11-12T12:20:50.046Z,14.37
2022-11-12T12:22:15.411Z,14.36
2022-11-12T12:23:41.831Z,14.32
2022-11-12T12:25:11.134Z,14.29
2022-11-12T12:26:38.979Z,14.26
2022-11-12T12:28:03.289Z,14.29
2022-11-12T12:29:30.173Z,14.30
2022-11-12T12:30:54.301Z,14.30
2022-11-12T12:32:24.119Z,14.27
2022-11-12T12:33:50.156Z,14.22
2022-11-12T12:35:19.110Z,14.25
2022-11-12T12:36:43.614Z,14.28
2022-11-12T12:38:12.880Z,14.30
2022-11-12T12:39:47.526Z,14.41
2022-11-12T12:41:16.401Z,14.53
2022-11-12T12:42:43.512Z,14.66
2022-11-12T12:44:07.075Z,14.78
2022-11-12T12:45:37.328Z,14.83
2022-11-12T12:47:00.771Z,14.97
2022-11-12T12:48:25.283Z,15.14
2022-11-12T12:49:49.902Z,15.33
2022-11-12T12:51:12.302Z,15.48
2022-11-12T12:53:03.231Z,15.54
2022-11-12T12:54:57.029Z,15.49
2022-11-12T12:56:49.654Z,15.45
2022-11-12T12:58:29.172Z,15.42
2022-11-12T12:59:51.861Z,15.45
2022-11-12T13:01:28.412Z,15.50
2022-11-12T13:02:50.998Z,15.59
2022-11-12T13:04:13.201Z,15.67
2022-11-12T13:05:36.339Z,15.63
2022-11-12T13:06:59.234Z,15.69
2022-11-12T13:08:26.309Z,15.75
2022-11-12T13:09:49.309Z,15.74
2022-11-12T13:11:11.884Z,15.73
2022-11-12T13:13:03.581Z,15.71
2022-11-12T13:15:02.034Z,15.75
2022-11-12T13:17:02.505Z,15.71
2022-11-12T13:19:02.308Z,15.70
2022-11-12T13:20:40.298Z,15.67
2022-11-12T13:22:49.353Z,15.68
2022-11-12T13:24:13.251Z,15.73
2022-11-12T13:25:34.711Z,15.88
2022-11-12T13:27:03.637Z,15.91
2022-11-12T13:28:25.280Z,15.93
2022-11-12T13:29:49.784Z,15.99
2022-11-12T13:31:36.469Z,16.02
2022-11-12T13:33:11.851Z,15.97
2022-11-12T13:34:45.576Z,15.88
2022-11-12T13:36:43.519Z,15.70
2022-11-12T13:38:25.588Z,15.46
2022-11-12T13:39:56.980Z,15.35
2022-11-12T13:41:43.779Z,15.27
2022-11-12T13:43:12.353Z,15.23
2022-11-12T13:44:49.098Z,15.32
2022-11-12T13:46:33.471Z,15.41
2022-11-12T13:47:57.184Z,15.48
2022-11-12T13:49:19.669Z,15.58
2022-11-12T13:50:43.088Z,15.58
2022-11-12T13:52:07.816Z,15.53
2022-11-12T13:53:33.141Z,15.51
2022-11-12T13:55:09.424Z,15.47
2022-11-12T13:56:40.972Z,15.35
2022-11-12T13:58:05.598Z,15.20
2022-11-12T13:59:27.755Z,15.17
2022-11-12T14:00:54.383Z,15.07
2022-11-12T14:02:30.741Z,14.96
2022-11-12T14:04:02.744Z,14.74
2022-11-12T14:05:31.080Z,14.61
2022-11-12T14:06:59.330Z,14.44
2022-11-12T14:09:06.072Z,14.24
2022-11-12T14:10:46.266Z,14.18
2022-11-12T14:12:29.779Z,14.27
2022-11-12T14:14:12.894Z,14.20
2022-11-12T14:15:52.732Z,14.11
2022-11-12T14:17:23.465Z,14.10
2022-11-12T14:19:03.496Z,13.98
2022-11-12T14:20:30.681Z,13.78
2022-11-12T14:22:03.390Z,13.71
2022-11-12T14:23:26.852Z,13.65
2022-11-12T14:24:54.542Z,13.46
2022-11-12T14:26:35.432Z,13.22
2022-11-12T14:27:58.241Z,13.04
2022-11-12T14:29:19.819Z,12.94
2022-11-12T14:30:46.053Z,12.92
2022-11-12T14:32:10.913Z,12.91
2022-11-12T14:33:34.383Z,12.87
2022-11-12T14:34:55.668Z,12.73
2022-11-12T14:36:19.530Z,12.52
2022-11-12T14:37:43.920Z,12.28
2022-11-12T14:39:06.511Z,12.02
2022-11-12T14:40:29.379Z,11.80
2022-11-12T14:41:53.862Z,11.56
2022-11-12T14:43:27.652Z,11.33
2022-11-12T14:44:50.349Z,11.12
2022-11-12T14:46:22.979Z,10.90
2022-11-12T14:47:44.481Z,10.72
2022-11-12T14:49:13.652Z,10.54
2022-11-12T14:50:40.751Z,10.33
2022-11-12T14:52:10.382Z,10.10
2022-11-12T14:53:34.652Z,9.90
2022-11-12T14:54:57.920Z,9.68
2022-11-12T14:56:28.958Z,9.44
2022-11-12T14:57:59.640Z,9.22
2022-11-12T14:59:21.719Z,9.01
2022-11-12T15:00:45.220Z,8.82
2022-11-12T15:04:06.404Z,8.38
2022-11-12T15:05:28.022Z,8.17
2022-11-12T15:06:54.724Z,7.98
2022-11-12T15:08:33.070Z,7.77
2022-11-12T15:09:55.993Z,7.54
2022-11-12T15:11:24.294Z,7.36
2022-11-12T15:12:46.889Z,7.19
2022-11-12T15:14:21.661Z,7.05
2022-11-12T15:15:52.609Z,6.89
2022-11-12T15:17:27.512Z,6.75
2022-11-12T15:19:05.100Z,6.60
2022-11-12T15:20:27.968Z,6.46
2022-11-12T15:21:53.155Z,6.34
2022-11-12T15:23:20.080Z,6.22
2022-11-12T15:24:44.966Z,6.10
2022-11-12T15:26:10.585Z,5.97
2022-11-12T15:27:37.330Z,5.83
2022-11-12T15:29:04.306Z,5.70
2022-11-12T15:30:30.785Z,5.59
2022-11-12T15:31:54.363Z,5.48
2022-11-12T15:33:20.060Z,5.35
2022-11-12T15:34:50.038Z,5.24
2022-11-12T15:36:17.521Z,5.14
2022-11-12T15:37:43.694Z,5.05
2022-11-12T15:39:13.919Z,4.94
2022-11-12T15:40:45.054Z,4.82
2022-11-12T15:42:16.077Z,4.66
2022-11-12T15:43:42.959Z,4.53
2022-11-12T15:45:11.363Z,4.40
2022-11-12T15:46:35.380Z,4.32
2022-11-12T15:47:57.972Z,4.24
2022-11-12T15:49:21.183Z,4.19
2022-11-12T15:50:43.914Z,4.14
2022-11-12T15:52:05.226Z,4.08
2022-11-12T15:53:28.979Z,4.04
2022-11-12T15:54:51.562Z,3.99
2022-11-12T15:56:16.310Z,3.89
2022-11-12T15:57:41.560Z,3.81
2022-11-12T15:59:04.861Z,3.77
2022-11-12T16:00:32.212Z,3.73
2022-11-12T16:01:56.203Z,3.68
2022-11-12T16:03:20.765Z,3.63
2022-11-12T16:04:43.172Z,3.57
2022-11-12T16:06:09.167Z,3.50
2022-11-12T16:07:31.700Z,3.42
2022-11-12T16:08:53.711Z,3.37
2022-11-12T16:10:18.310Z,3.33
2022-11-12T16:11:41.066Z,3.29
2022-11-12T16:13:04.390Z,3.25
2022-11-12T16:14:26.713Z,3.21
2022-11-12T16:15:51.753Z,3.19
2022-11-12T16:17:17.075Z,3.14
2022-11-12T16:18:39.838Z,3.08
2022-11-12T16:20:02.248Z,3.02
2022-11-12T16:21:25.468Z,2.95
2022-11-12T16:22:47.837Z,2.85
2022-11-12T16:24:10.303Z,2.78
2022-11-12T16:25:34.614Z,2.74
2022-11-12T16:26:57.069Z,2.72
2022-11-12T16:28:20.391Z,2.68
2022-11-12T16:29:42.972Z,2.65
2022-11-12T16:31:05.780Z,2.62
2022-11-12T16:32:29.803Z,2.60
2022-11-12T16:33:51.841Z,2.57
2022-11-12T16:35:14.254Z,2.51
2022-11-12T16:36:36.561Z,2.48
2022-11-12T16:37:59.503Z,2.46
2022-11-12T16:39:21.836Z,2.44
2022-11-12T16:40:44.870Z,2.39
2022-11-12T16:42:07.230Z,2.37
2022-11-12T16:43:29.536Z,2.34
2022-11-12T16:44:52.891Z,2.31
2022-11-12T16:46:18.297Z,2.26
2022-11-12T16:47:46.397Z,2.16
2022-11-12T16:49:15.032Z,2.14
2022-11-12T16:50:37.623Z,2.18
2022-11-12T16:52:01.753Z,2.21
2022-11-12T16:53:24.331Z,2.20
2022-11-12T16:54:47.394Z,2.16
2022-11-12T16:56:13.932Z,2.10
2022-11-12T16:57:37.458Z,2.06
2022-11-12T16:58:59.774Z,2.03
2022-11-12T17:00:22.672Z,1.99
2022-11-12T17:01:46.189Z,1.95
2022-11-12T17:03:13.077Z,1.85
2022-11-12T17:04:36.789Z,1.77
2022-11-12T17:05:59.574Z,1.73
2022-11-12T17:07:28.959Z,1.69
2022-11-12T17:08:56.621Z,1.62
2022-11-12T17:10:24.134Z,1.54
2022-11-12T17:11:47.027Z,1.51
2022-11-12T17:13:15.307Z,1.48
2022-11-12T17:14:40.420Z,1.47
2022-11-12T17:16:08.483Z,1.47
2022-11-12T17:17:32.745Z,1.43
2022-11-12T17:18:58.743Z,1.41
2022-11-12T17:20:21.359Z,1.41
2022-11-12T17:21:45.181Z,1.37
2022-11-12T17:23:07.439Z,1.32
2022-11-12T17:24:30.102Z,1.32
2022-11-12T17:26:01.953Z,1.33
2022-11-12T17:27:30.981Z,1.30
2022-11-12T17:29:03.507Z,1.21
2022-11-12T17:30:32.869Z,1.17
2022-11-12T17:31:55.727Z,1.16
2022-11-12T17:33:25.213Z,1.15
2022-11-12T17:34:54.823Z,1.14
2022-11-12T17:36:24.672Z,1.10
2022-11-12T17:37:49.088Z,1.07
2022-11-12T17:39:14.027Z,1.00
2022-11-12T17:40:35.590Z,0.96
2022-11-12T17:42:00.330Z,0.91
2022-11-12T17:43:22.313Z,0.89
2022-11-12T17:44:51.883Z,0.85
2022-11-12T17:46:22.153Z,0.80
2022-11-12T17:47:47.116Z,0.76
2022-11-12T17:49:11.246Z,0.75
2022-11-12T17:50:35.612Z,0.75
2022-11-12T17:51:58.160Z,0.75
2022-11-12T17:53:20.838Z,0.75
2022-11-12T17:54:44.542Z,0.73
2022-11-12T17:56:09.834Z,0.69
2022-11-12T17:57:33.452Z,0.67
2022-11-12T17:58:56.331Z,0.69
2022-11-12T18:00:19.799Z,0.71
2022-11-12T18:01:42.344Z,0.71
2022-11-12T18:03:05.052Z,0.70
2022-11-12T18:04:31.113Z,0.69
2022-11-12T18:06:05.234Z,0.65
2022-11-12T18:07:32.673Z,0.64
2022-11-12T18:08:57.482Z,0.60
2022-11-12T18:10:21.492Z,0.54
2022-11-12T18:11:50.532Z,0.50
2022-11-12T18:13:14.706Z,0.45
2022-11-12T18:14:39.193Z,0.40
2022-11-12T18:16:14.926Z,0.33
2022-11-12T18:17:38.562Z,0.31
2022-11-12T18:19:01.882Z,0.31
2022-11-12T18:20:26.198Z,0.29
2022-11-12T18:21:57.577Z,0.26
2022-11-12T18:23:22.152Z,0.27
2022-11-12T18:24:47.718Z,0.29
2022-11-12T18:26:14.293Z,0.32
2022-11-12T18:27:38.031Z,0.33
2022-11-12T18:29:02.785Z,0.40
2022-11-12T18:30:29.301Z,0.50
2022-11-12T18:31:54.533Z,0.67
2022-11-12T18:33:22.452Z,0.84
2022-11-12T18:34:49.251Z,0.99
2022-11-12T18:36:15.956Z,1.16
2022-11-12T18:37:40.370Z,1.34
2022-11-12T18:39:07.620Z,1.52
2022-11-12T18:40:29.996Z,1.69
2022-11-12T18:41:54.025Z,1.85
2022-11-12T18:43:17.994Z,2.01